Time;durP1;ratioP1;P1;durP2;ratioP2;P2;SDS_P1;SDS_P2;PMS_P1;PMS_P2;Temp;Humidity;BMP_temperature;BMP_pressure;BME280_temperature;BME280_humidity;BME280_pressure;Samples;Min_cycle;Max_cycle;Signal;HPM_P1;HPM_P2
2022/12/27 00:02:20;;;;;;;;;6.33;5.00;;;;;9.67;68.55;-19470.97;4851545;29;45520;-91
2022/12/27 00:04:46;;;;;;;;;4.00;4.00;;;;;9.83;68.09;-19475.31;4859380;29;45631;-90
2022/12/27 00:07:12;;;;;;;;;6.67;5.00;;;;;9.84;68.03;-19475.44;4853407;29;46852;-90
2022/12/27 00:09:38;;;;;;;;;5.00;4.00;;;;;9.81;68.44;-19474.75;4854170;29;46815;-91
2022/12/27 00:12:03;;;;;;;;;6.00;5.00;;;;;9.79;68.57;-19474.22;4854412;29;45337;-92
2022/12/27 00:14:29;;;;;;;;;4.00;4.00;;;;;9.68;68.53;-19471.25;4859331;29;45393;-90
2022/12/27 00:16:54;;;;;;;;;5.00;5.00;;;;;9.78;68.65;-19473.94;4853543;29;46653;-91
2022/12/27 00:19:19;;;;;;;;;2.00;2.00;;;;;9.33;68.95;-19462.06;4870408;29;47562;-90
2022/12/27 00:21:45;;;;;;;;;2.67;2.67;;;;;9.33;68.98;-19462.06;4862573;29;45350;-90
2022/12/27 00:24:10;;;;;;;;;4.33;3.00;;;;;8.77;68.53;-19447.34;4853584;29;45416;-90
2022/12/27 00:26:38;;;;;;;;;5.00;3.00;;;;;9.68;69.07;-19471.38;4856511;29;45600;-91
2022/12/27 00:29:03;;;;;;;;;0.00;0.00;;;;;9.42;68.87;-19464.38;4858557;29;46823;-91
2022/12/27 00:31:30;;;;;;;;;6.67;5.00;;;;;9.64;69.19;-19470.16;4855873;29;45530;-90
2022/12/27 00:34:25;;;;;;;;;7.00;4.67;;;;;7.60;69.05;-19416.50;4824539;29;45715;-90
2022/12/27 00:36:59;;;;;;;;;3.33;3.33;;;;;8.86;68.71;-19449.78;5015422;23;45610;-92
2022/12/27 00:46:16;;;;;;;;;4.00;2.33;;;;;8.25;68.95;-19433.69;4855542;29;45242;-90
2022/12/27 00:59:19;;;;;;;;;2.33;2.33;;;;;9.50;69.51;-19466.53;4857307;29;45506;-92
2022/12/27 01:12:51;;;;;;;;;2.33;1.00;;;;;9.54;69.93;-19467.47;4850012;29;46373;-91
2022/12/27 01:15:17;;;;;;;;;2.00;1.00;;;;;9.22;69.56;-19459.09;4847540;29;45359;-91
2022/12/27 01:17:42;;;;;;;;;2.00;2.00;;;;;9.56;69.77;-19468.16;4846388;29;46494;-92
2022/12/27 01:20:08;;;;;;;;;2.00;2.00;;;;;9.47;69.64;-19465.72;4829284;29;45380;-91
2022/12/27 01:22:33;;;;;;;;;2.00;2.00;;;;;9.27;69.80;-19460.59;4846094;29;45451;-90
2022/12/27 01:24:58;;;;;;;;;3.00;2.33;;;;;9.30;69.31;-19461.25;4860447;29;45478;-91
2022/12/27 01:27:24;;;;;;;;;1.00;1.00;;;;;9.28;69.63;-19460.72;4864863;29;45519;-91
2022/12/27 01:29:49;;;;;;;;;2.33;1.33;;;;;9.39;69.60;-19463.69;4851314;29;45483;-91
2022/12/27 01:32:14;;;;;;;;;5.00;3.00;;;;;9.35;69.71;-19462.47;4850563;29;45436;-90
2022/12/27 01:34:40;;;;;;;;;4.00;1.33;;;;;8.92;69.75;-19451.25;4857647;29;45798;-90
2022/12/27 01:37:05;;;;;;;;;3.33;3.33;;;;;9.45;69.67;-19465.19;4863907;29;46921;-91
2022/12/27 01:39:30;;;;;;;;;1.33;1.33;;;;;9.12;69.71;-19456.53;4864681;29;45442;-90
2022/12/27 01:44:48;;;;;;;;;2.00;2.00;;;;;9.68;69.81;-19471.38;4847809;29;45531;-90
2022/12/27 01:47:16;;;;;;;;;3.00;1.00;;;;;9.70;69.84;-19471.94;4848721;29;45456;-90
2022/12/27 01:49:58;;;;;;;;;5.00;3.00;;;;;9.45;69.69;-19465.19;4845340;29;45467;-91
2022/12/27 01:52:37;;;;;;;;;6.33;2.00;;;;;9.71;70.02;-19472.19;4845723;29;45397;-91
2022/12/27 01:55:25;;;;;;;;;1.67;1.67;;;;;9.29;69.69;-19461.13;4833076;29;45566;-90
2022/12/27 01:57:55;;;;;;;;;1.00;1.00;;;;;9.03;69.81;-19454.09;4864081;29;45521;-90
2022/12/27 02:00:21;;;;;;;;;2.33;2.33;;;;;9.72;69.70;-19472.34;4852384;29;45573;-90
2022/12/27 02:02:48;;;;;;;;;4.33;2.00;;;;;9.72;70.17;-19472.47;4867765;29;45688;-90
2022/12/27 02:05:16;;;;;;;;;3.33;3.00;;;;;9.09;70.11;-19455.84;4831945;29;45604;-90
2022/12/27 02:07:55;;;;;;;;;2.00;1.67;;;;;9.71;70.07;-19472.19;4845482;29;45721;-89
2022/12/27 02:10:20;;;;;;;;;2.67;2.67;;;;;9.11;69.64;-19456.13;4854702;29;45563;-91
2022/12/27 02:12:46;;;;;;;;;5.00;2.00;;;;;8.74;69.87;-19446.53;4864154;29;45425;-91
2022/12/27 02:15:11;;;;;;;;;2.00;2.00;;;;;9.62;70.12;-19469.78;4843130;29;45644;-91
2022/12/27 02:17:37;;;;;;;;;4.00;3.00;;;;;9.28;69.94;-19460.84;4828597;29;46895;-90
2022/12/27 02:20:12;;;;;;;;;2.00;2.00;;;;;9.71;69.90;-19472.06;4846222;29;45375;-90
2022/12/27 02:26:09;;;;;;;;;3.33;2.67;;;;;9.67;70.29;-19470.97;4853622;29;45566;-91
2022/12/27 02:28:55;;;;;;;;;2.00;2.00;;;;;9.67;69.76;-19470.97;4863784;29;47499;-91
2022/12/27 02:31:32;;;;;;;;;1.00;1.00;;;;;9.19;70.05;-19458.41;4862881;29;45423;-91
2022/12/27 02:34:01;;;;;;;;;4.00;2.00;;;;;9.60;69.85;-19469.22;4845061;29;45464;-91
2022/12/27 02:36:30;;;;;;;;;1.00;1.00;;;;;9.63;69.94;-19470.03;4860711;29;45619;-90
2022/12/27 02:39:00;;;;;;;;;2.33;2.33;;;;;9.64;70.05;-19470.31;4845121;29;46425;-91
2022/12/27 02:55:41;;;;;;;;;3.00;2.00;;;;;9.72;69.68;-19472.47;4846675;29;45508;-90
2022/12/27 02:58:15;;;;;;;;;2.00;2.00;;;;;9.59;69.46;-19468.97;4860910;29;45566;-90
2022/12/27 03:04:01;;;;;;;;;1.33;1.33;;;;;9.74;69.90;-19472.88;4851397;29;45430;-91
2022/12/27 03:06:38;;;;;;;;;4.00;3.00;;;;;9.72;69.91;-19472.47;4836871;29;45691;-90
2022/12/27 03:18:17;;;;;;;;;4.33;1.00;;;;;9.15;69.78;-19457.34;4805471;29;45549;-90
2022/12/27 03:26:17;;;;;;;;;3.00;2.00;;;;;9.51;69.96;-19466.78;4805247;29;45511;-91
2022/12/27 03:34:31;;;;;;;;;1.67;1.00;;;;;9.70;70.16;-19471.78;4808139;29;45842;-91
2022/12/27 03:40:01;;;;;;;;;3.67;1.33;;;;;9.44;70.17;-19464.91;4823783;29;45535;-91
2022/12/27 03:45:19;;;;;;;;;1.00;1.00;;;;;9.52;70.00;-19467.06;4828305;29;46020;-91
2022/12/27 03:48:03;;;;;;;;;3.67;2.00;;;;;9.38;69.96;-19463.28;4823513;29;45515;-91
2022/12/27 03:50:43;;;;;;;;;2.00;2.00;;;;;9.80;69.97;-19474.34;4825733;29;45468;-90
2022/12/27 03:53:18;;;;;;;;;4.00;4.00;;;;;9.26;69.67;-19460.31;4850288;29;45624;-91
2022/12/27 03:55:43;;;;;;;;;3.00;2.00;;;;;9.66;69.90;-19470.84;4848847;29;45680;-92
2022/12/27 03:58:09;;;;;;;;;1.00;1.00;;;;;9.60;69.89;-19469.09;4862619;29;45479;-90
2022/12/27 04:00:35;;;;;;;;;4.67;3.00;;;;;9.33;69.56;-19461.94;4861842;29;45430;-91
2022/12/27 04:03:00;;;;;;;;;2.00;2.00;;;;;9.78;69.64;-19473.94;4844062;29;45514;-91
2022/12/27 04:05:25;;;;;;;;;6.00;2.00;;;;;9.72;69.78;-19472.34;4828277;29;47062;-91
2022/12/27 04:34:38;;;;;;;;;3.00;2.00;;;;;9.24;69.81;-19459.63;4815647;29;45583;-90
2022/12/27 04:37:04;;;;;;;;;4.00;1.33;;;;;9.46;70.20;-19465.44;4807182;29;45343;-91
2022/12/27 04:39:29;;;;;;;;;2.00;2.00;;;;;9.47;70.24;-19465.84;4805375;29;46817;-90
2022/12/27 04:56:03;;;;;;;;;4.00;3.00;;;;;9.59;70.39;-19468.81;4847036;29;45390;-90
2022/12/27 04:58:29;;;;;;;;;3.67;2.00;;;;;9.46;70.70;-19465.59;4858720;29;45443;-91
2022/12/27 05:03:43;;;;;;;;;2.67;1.00;;;;;9.31;70.51;-19461.53;4855346;29;45353;-93
2022/12/27 05:06:09;;;;;;;;;2.67;1.67;;;;;9.56;70.42;-19468.16;4861508;29;45250;-92
2022/12/27 05:14:08;;;;;;;;;4.00;2.33;;;;;9.54;70.50;-19467.59;4864346;29;45704;-92
2022/12/27 05:16:36;;;;;;;;;2.00;2.00;;;;;9.54;70.63;-19467.59;4847068;29;45438;-91
2022/12/27 05:19:03;;;;;;;;;1.00;1.00;;;;;9.17;70.79;-19457.88;4864112;29;45465;-91
2022/12/27 05:21:28;;;;;;;;;5.00;4.00;;;;;9.14;70.81;-19457.06;4846282;29;46390;-91
2022/12/27 05:26:38;;;;;;;;;2.00;2.00;;;;;9.23;71.23;-19459.50;4862406;29;45459;-91
2022/12/27 05:29:05;;;;;;;;;3.00;3.00;;;;;9.05;70.63;-19454.78;4861565;29;45529;-90
2022/12/27 05:31:30;;;;;;;;;4.00;3.00;;;;;9.33;70.62;-19462.06;4851774;29;46488;-90
2022/12/27 05:33:56;;;;;;;;;2.00;2.00;;;;;9.28;70.62;-19460.72;4862078;29;45541;-90
2022/12/27 05:36:21;;;;;;;;;4.00;3.00;;;;;9.06;70.74;-19455.03;4864398;29;45271;-91
2022/12/27 05:38:47;;;;;;;;;4.00;4.00;;;;;9.17;70.42;-19457.75;4847673;29;45411;-91
2022/12/27 05:41:12;;;;;;;;;3.00;2.67;;;;;9.34;70.64;-19462.34;4860999;29;46048;-90
2022/12/27 05:43:39;;;;;;;;;4.33;3.67;;;;;9.10;70.67;-19456.00;4864258;29;45581;-91
2022/12/27 05:46:10;;;;;;;;;4.00;4.00;;;;;9.09;70.65;-19455.72;4859686;29;45334;-91
2022/12/27 05:48:36;;;;;;;;;3.00;3.00;;;;;9.08;70.76;-19455.44;4861231;29;45538;-91
2022/12/27 05:51:13;;;;;;;;;2.67;2.67;;;;;9.55;70.94;-19467.75;4836489;29;47276;-91
2022/12/27 05:53:38;;;;;;;;;7.33;2.33;;;;;9.55;70.78;-19467.88;4833260;29;45580;-91
2022/12/27 05:56:04;;;;;;;;;4.33;2.00;;;;;9.36;70.39;-19462.88;4849247;29;45455;-91
2022/12/27 05:58:30;;;;;;;;;2.00;0.00;;;;;9.40;70.83;-19463.97;4856426;29;45455;-91
2022/12/27 06:00:56;;;;;;;;;2.67;2.67;;;;;9.15;70.46;-19457.34;4855453;29;47155;-90
2022/12/27 06:03:22;;;;;;;;;3.00;2.00;;;;;9.21;70.44;-19458.81;4863121;29;45415;-90
2022/12/27 06:05:47;;;;;;;;;4.33;3.00;;;;;9.22;70.81;-19459.09;4858670;29;45442;-90
2022/12/27 06:08:13;;;;;;;;;4.00;3.00;;;;;9.47;70.63;-19465.84;4858821;29;45581;-90
2022/12/27 06:10:39;;;;;;;;;2.00;2.00;;;;;9.46;70.39;-19465.44;4856267;29;45569;-90
2022/12/27 06:13:04;;;;;;;;;2.67;2.67;;;;;9.52;70.68;-19467.06;4860562;29;45461;-91
2022/12/27 06:15:30;;;;;;;;;2.00;1.67;;;;;9.22;70.72;-19459.09;4862032;29;45469;-91
2022/12/27 06:17:57;;;;;;;;;2.00;2.00;;;;;8.47;70.79;-19439.22;4862828;29;45557;-91
2022/12/27 06:20:22;;;;;;;;;5.00;2.00;;;;;9.15;70.92;-19457.34;4862241;29;45693;-91
2022/12/27 06:22:47;;;;;;;;;2.00;2.00;;;;;8.36;70.77;-19436.53;4862972;29;45455;-91
2022/12/27 06:25:13;;;;;;;;;3.33;2.33;;;;;9.43;70.72;-19464.78;4863507;29;45329;-90
2022/12/27 06:27:38;;;;;;;;;2.00;2.00;;;;;9.56;70.70;-19468.00;4860104;29;45816;-91
2022/12/27 06:30:06;;;;;;;;;2.33;2.33;;;;;9.54;70.65;-19467.59;4851746;29;46307;-90
2022/12/27 06:32:32;;;;;;;;;2.00;2.00;;;;;8.94;70.51;-19451.78;4849096;29;45373;-90
2022/12/27 06:34:57;;;;;;;;;2.00;2.00;;;;;9.27;70.98;-19460.59;4856042;29;45525;-91
2022/12/27 06:37:22;;;;;;;;;3.00;2.00;;;;;8.61;70.81;-19443.00;4859060;29;45458;-91
2022/12/27 06:39:48;;;;;;;;;3.00;2.00;;;;;9.45;71.03;-19465.31;4858628;29;45509;-90
2022/12/27 06:42:13;;;;;;;;;3.00;3.00;;;;;9.50;70.98;-19466.66;4854127;29;45592;-91
2022/12/27 06:44:39;;;;;;;;;3.67;2.33;;;;;9.09;70.71;-19455.84;4851752;29;45373;-91
2022/12/27 06:47:04;;;;;;;;;2.00;2.00;;;;;9.51;70.94;-19466.78;4846182;29;45628;-90
2022/12/27 06:49:29;;;;;;;;;2.33;2.33;;;;;9.49;70.93;-19466.38;4863093;29;45494;-91
2022/12/27 06:51:55;;;;;;;;;3.67;2.00;;;;;9.05;71.31;-19454.78;4857096;29;45513;-91
2022/12/27 06:54:20;;;;;;;;;4.00;2.67;;;;;9.08;71.15;-19455.44;4850867;29;45418;-91
2022/12/27 06:56:46;;;;;;;;;3.67;3.33;;;;;8.96;71.17;-19452.22;4859164;29;45518;-90
2022/12/27 06:59:12;;;;;;;;;4.00;3.00;;;;;8.59;70.92;-19442.47;4859574;29;45430;-93
2022/12/27 07:01:37;;;;;;;;;3.33;2.00;;;;;9.49;71.20;-19466.38;4849995;29;45582;-91
2022/12/27 07:04:03;;;;;;;;;3.00;3.00;;;;;9.08;71.28;-19455.59;4854618;29;45348;-94
2022/12/27 07:06:30;;;;;;;;;4.00;3.00;;;;;9.34;71.52;-19462.34;4863896;29;45329;-94
2022/12/27 07:08:56;;;;;;;;;4.00;4.00;;;;;9.43;71.13;-19464.78;4860419;29;46857;-93
2022/12/27 07:11:23;;;;;;;;;1.67;1.67;;;;;9.29;71.28;-19460.97;4835739;29;45623;-90
2022/12/27 07:13:50;;;;;;;;;3.33;3.00;;;;;9.50;70.90;-19466.53;4852065;29;45576;-95
2022/12/27 07:16:23;;;;;;;;;4.00;4.00;;;;;8.81;70.70;-19448.41;4834597;29;45451;-90
2022/12/27 07:18:49;;;;;;;;;5.00;3.00;;;;;8.59;70.90;-19442.47;4860519;29;45615;-90
2022/12/27 07:21:17;;;;;;;;;2.00;2.00;;;;;9.52;70.82;-19467.06;4838858;29;45509;-90
2022/12/27 07:23:43;;;;;;;;;7.33;6.33;;;;;9.53;70.56;-19467.34;4844874;29;45391;-92
2022/12/27 07:29:17;;;;;;;;;3.00;3.00;;;;;8.75;70.54;-19446.78;4872982;23;45432;-89
2022/12/27 07:31:48;;;;;;;;;5.00;3.00;;;;;8.66;70.37;-19444.50;4859620;29;45607;-91
2022/12/27 07:34:14;;;;;;;;;7.00;6.00;;;;;9.64;70.24;-19470.16;4838982;29;45588;-89
2022/12/27 07:36:42;;;;;;;;;3.00;3.00;;;;;8.05;69.73;-19428.28;4839489;29;45854;-90
2022/12/27 07:42:23;;;;;;;;;4.00;3.00;;;;;8.77;69.94;-19447.22;4927058;23;45783;-85
2022/12/27 07:44:48;;;;;;;;;3.00;3.00;;;;;8.61;69.51;-19443.16;4832952;29;45487;-84
2022/12/27 07:47:13;;;;;;;;;4.00;4.00;;;;;9.27;69.72;-19460.59;4840630;29;45566;-91
2022/12/27 07:49:39;;;;;;;;;3.67;3.67;;;;;8.17;69.52;-19431.38;4851241;29;45650;-87
2022/12/27 07:52:04;;;;;;;;;3.33;2.00;;;;;9.13;69.76;-19456.81;4845596;29;45526;-87
2022/12/27 07:54:29;;;;;;;;;4.67;3.33;;;;;9.09;69.62;-19455.72;4843680;29;45640;-86
2022/12/27 07:56:54;;;;;;;;;4.33;3.00;;;;;9.77;69.62;-19473.56;4851032;29;45681;-86
2022/12/27 07:59:21;;;;;;;;;5.33;4.00;;;;;9.78;69.71;-19473.94;4846823;29;46246;-87
2022/12/27 08:02:04;;;;;;;;;3.67;3.33;;;;;9.34;69.34;-19462.34;4852754;29;45758;-86
2022/12/27 08:04:31;;;;;;;;;3.00;3.00;;;;;9.82;69.54;-19474.91;4856096;29;45444;-91
2022/12/27 08:07:11;;;;;;;;;2.33;2.33;;;;;7.99;69.84;-19426.78;4832273;29;45627;-86
2022/12/27 08:09:39;;;;;;;;;4.33;4.33;;;;;9.84;69.96;-19475.56;4849096;29;45987;-86
2022/12/27 08:12:06;;;;;;;;;4.00;4.00;;;;;9.85;69.56;-19475.72;4854034;29;45420;-87
2022/12/27 08:14:32;;;;;;;;;6.67;5.00;;;;;9.52;70.08;-19467.06;4861032;29;45300;-86
2022/12/27 08:17:03;;;;;;;;;4.67;4.67;;;;;8.79;69.91;-19447.75;4856866;29;45824;-87
2022/12/27 08:19:28;;;;;;;;;5.00;4.00;;;;;9.75;70.22;-19473.13;4881013;29;46668;-86
2022/12/27 08:21:53;;;;;;;;;4.00;4.00;;;;;9.00;69.94;-19453.28;4856084;29;45473;-86
2022/12/27 08:24:19;;;;;;;;;6.00;4.33;;;;;8.61;69.77;-19443.16;4856361;29;45796;-88
2022/12/27 08:26:44;;;;;;;;;4.67;4.67;;;;;9.41;69.73;-19464.09;4841919;29;45424;-87
2022/12/27 08:29:09;;;;;;;;;5.33;5.33;;;;;9.81;69.96;-19474.75;4862314;29;45406;-88
2022/12/27 08:31:35;;;;;;;;;3.00;3.00;;;;;9.82;70.27;-19474.91;4860119;29;45351;-87
2022/12/27 08:34:02;;;;;;;;;3.00;3.00;;;;;9.77;70.26;-19473.56;4862481;29;45549;-87
2022/12/27 08:36:27;;;;;;;;;6.00;5.67;;;;;9.08;70.18;-19455.59;4853770;29;45346;-87
2022/12/27 08:38:54;;;;;;;;;8.67;5.67;;;;;8.97;70.31;-19452.63;4844134;29;47461;-86
2022/12/27 08:41:20;;;;;;;;;6.33;4.00;;;;;9.65;69.85;-19470.56;4845538;29;45556;-87
2022/12/27 08:43:46;;;;;;;;;4.00;4.00;;;;;9.56;69.94;-19468.16;4845622;29;45469;-87
2022/12/27 08:46:11;;;;;;;;;3.67;3.00;;;;;8.69;69.94;-19445.19;4862694;29;45460;-88
2022/12/27 08:48:37;;;;;;;;;3.00;3.00;;;;;8.91;69.54;-19451.00;4856019;29;46457;-87
2022/12/27 08:51:07;;;;;;;;;3.00;3.00;;;;;9.56;69.84;-19468.16;4854112;29;45596;-88
2022/12/27 08:53:32;;;;;;;;;5.33;5.33;;;;;9.46;69.29;-19465.59;4837866;29;45579;-89
2022/12/27 08:55:58;;;;;;;;;9.33;6.33;;;;;9.66;69.18;-19470.72;4840050;29;45390;-89
2022/12/27 08:58:23;;;;;;;;;5.33;5.00;;;;;9.98;69.29;-19479.09;4848749;29;47310;-88
2022/12/27 09:00:49;;;;;;;;;6.67;5.00;;;;;9.90;69.02;-19477.06;4847001;29;45433;-88
2022/12/27 09:03:19;;;;;;;;;6.33;4.00;;;;;10.15;68.38;-19483.66;4864997;29;45415;-90
2022/12/27 09:05:45;;;;;;;;;2.33;2.33;;;;;9.61;68.01;-19469.38;4846937;29;45456;-89
2022/12/27 09:08:11;;;;;;;;;3.00;3.00;;;;;9.81;67.89;-19474.75;4855878;29;48037;-89
2022/12/27 09:10:37;;;;;;;;;3.00;3.00;;;;;9.85;68.09;-19475.72;4862249;29;45356;-87
2022/12/27 09:13:03;;;;;;;;;6.00;3.00;;;;;10.08;68.14;-19481.91;4861977;29;45291;-87
2022/12/27 09:15:28;;;;;;;;;3.00;1.33;;;;;10.23;67.70;-19485.69;4846864;29;45454;-87
2022/12/27 09:17:53;;;;;;;;;3.00;3.00;;;;;9.43;67.75;-19464.63;4829469;29;47055;-87
2022/12/27 09:20:19;;;;;;;;;7.00;3.00;;;;;10.12;67.64;-19483.00;4844148;29;45892;-87
2022/12/27 09:22:44;;;;;;;;;3.00;3.00;;;;;9.92;67.88;-19477.59;4865324;29;45431;-87
2022/12/27 09:25:09;;;;;;;;;4.00;2.00;;;;;9.93;67.93;-19477.88;4862330;29;45384;-87
2022/12/27 09:27:36;;;;;;;;;1.00;1.00;;;;;9.56;67.42;-19468.00;4846540;29;45401;-87
2022/12/27 09:30:06;;;;;;;;;4.00;3.00;;;;;9.58;67.64;-19468.56;4864559;29;45384;-88
2022/12/27 09:32:31;;;;;;;;;4.00;3.00;;;;;9.94;67.32;-19478.13;4864087;29;45361;-88
2022/12/27 09:34:57;;;;;;;;;4.00;4.00;;;;;9.74;67.25;-19472.88;4847317;29;45456;-88
2022/12/27 09:37:22;;;;;;;;;2.33;2.33;;;;;10.30;66.76;-19487.59;4841764;29;46110;-87
2022/12/27 09:39:48;;;;;;;;;3.00;3.00;;;;;8.55;66.77;-19441.41;4846810;29;45417;-86
2022/12/27 09:42:35;;;;;;;;;4.33;3.33;;;;;10.01;66.99;-19479.88;4851290;29;45473;-86
2022/12/27 09:45:20;;;;;;;;;3.67;3.33;;;;;10.73;66.84;-19498.91;4860726;29;45523;-86
2022/12/27 09:47:57;;;;;;;;;4.33;2.67;;;;;10.78;67.02;-19500.28;4847360;29;47626;-86
2022/12/27 09:50:45;;;;;;;;;5.00;4.00;;;;;10.08;66.27;-19481.78;4864649;29;45392;-86
2022/12/27 09:53:29;;;;;;;;;4.33;3.00;;;;;10.80;66.29;-19500.81;4864778;29;45481;-86
2022/12/27 09:55:56;;;;;;;;;5.67;4.00;;;;;10.84;66.44;-19501.88;4847757;29;45277;-87
2022/12/27 09:58:41;;;;;;;;;4.00;3.00;;;;;10.84;66.54;-19501.88;4845251;29;45423;-87
2022/12/27 10:01:22;;;;;;;;;4.00;3.00;;;;;10.85;66.01;-19502.16;4854990;29;46639;-87
2022/12/27 10:03:47;;;;;;;;;3.00;3.00;;;;;10.40;65.97;-19490.16;4851995;29;45376;-87
2022/12/27 10:06:31;;;;;;;;;1.00;1.00;;;;;10.85;65.99;-19502.03;4831279;29;45671;-87
2022/12/27 10:08:56;;;;;;;;;2.00;2.00;;;;;10.88;65.92;-19502.84;4846221;29;46429;-87
2022/12/27 10:11:38;;;;;;;;;4.00;4.00;;;;;10.46;66.45;-19491.91;4848586;29;46340;-87
2022/12/27 10:14:39;;;;;;;;;4.67;4.67;;;;;10.86;65.63;-19502.28;4847134;29;45495;-87
2022/12/27 10:17:20;;;;;;;;;5.67;4.00;;;;;10.87;66.07;-19502.69;4863868;29;45448;-87
2022/12/27 10:19:57;;;;;;;;;6.00;5.00;;;;;10.88;66.03;-19502.84;4833595;29;48214;-87
2022/12/27 10:22:43;;;;;;;;;3.00;3.00;;;;;10.89;65.89;-19503.25;4861604;29;45371;-87
2022/12/27 10:25:12;;;;;;;;;4.67;4.00;;;;;9.85;65.99;-19475.84;4846020;29;45426;-87
2022/12/27 10:27:38;;;;;;;;;8.33;4.00;;;;;10.92;65.38;-19503.91;4864629;29;45298;-87
2022/12/27 10:30:15;;;;;;;;;5.00;5.00;;;;;10.94;65.98;-19504.59;4853939;29;46320;-87
2022/12/27 10:32:40;;;;;;;;;5.00;5.00;;;;;10.55;65.97;-19494.19;4845326;29;45376;-87
2022/12/27 10:35:06;;;;;;;;;7.00;4.00;;;;;9.11;66.16;-19456.13;4845551;29;45362;-87
2022/12/27 10:37:31;;;;;;;;;4.00;4.00;;;;;9.90;65.94;-19477.19;4860993;29;45646;-87
2022/12/27 10:40:08;;;;;;;;;5.00;3.00;;;;;9.67;65.00;-19470.97;4845967;29;46946;-87
2022/12/27 10:42:37;;;;;;;;;4.33;4.33;;;;;10.27;65.41;-19486.78;4863687;29;45395;-87
2022/12/27 10:45:37;;;;;;;;;4.33;3.00;;;;;11.15;65.04;-19509.97;4863791;29;45249;-87
2022/12/27 10:48:22;;;;;;;;;3.67;3.33;;;;;10.97;65.31;-19505.25;4863397;29;45620;-87
2022/12/27 10:50:49;;;;;;;;;4.00;3.00;;;;;11.19;64.73;-19511.19;4841185;29;48190;-87
2022/12/27 10:53:45;;;;;;;;;4.00;4.00;;;;;11.18;64.99;-19510.91;4845174;29;45367;-87
2022/12/27 10:56:12;;;;;;;;;3.67;3.67;;;;;10.76;64.37;-19499.72;4877236;29;45293;-87
2022/12/27 10:58:49;;;;;;;;;3.67;2.67;;;;;11.25;65.07;-19512.66;4878024;29;45395;-87
2022/12/27 11:01:22;;;;;;;;;4.00;3.00;;;;;11.07;64.76;-19507.94;4863082;29;45468;-87
2022/12/27 11:03:49;;;;;;;;;4.33;4.00;;;;;11.08;64.76;-19508.09;4863349;29;45260;-87
2022/12/27 11:06:24;;;;;;;;;2.67;2.00;;;;;11.38;64.67;-19516.03;4844023;29;45676;-87
2022/12/27 11:08:51;;;;;;;;;3.00;3.00;;;;;11.42;64.38;-19517.13;4835684;29;45487;-87
2022/12/27 11:11:21;;;;;;;;;2.67;1.00;;;;;11.46;63.47;-19518.06;4842833;29;47259;-88
2022/12/27 11:13:47;;;;;;;;;2.00;2.00;;;;;10.75;63.72;-19499.59;4859126;29;45372;-87
2022/12/27 11:16:21;;;;;;;;;2.00;2.00;;;;;11.05;62.95;-19505.34;4834257;29;45489;-87
2022/12/27 11:18:52;;;;;;;;;2.00;2.00;;;;;11.08;63.75;-19508.22;4868530;29;45405;-87
2022/12/27 11:21:19;;;;;;;;;3.00;1.00;;;;;11.41;62.98;-19514.91;4863143;29;45381;-87
2022/12/27 11:23:48;;;;;;;;;2.00;2.00;;;;;11.68;62.81;-19522.03;4846603;29;46232;-88
2022/12/27 11:26:24;;;;;;;;;1.33;1.33;;;;;11.73;63.04;-19525.34;4846724;29;45611;-87
2022/12/27 11:28:54;;;;;;;;;3.67;2.00;;;;;11.02;62.50;-19504.53;4843475;29;45331;-86
2022/12/27 11:31:31;;;;;;;;;2.00;2.00;;;;;11.86;62.76;-19526.63;4848322;29;45454;-86
2022/12/27 11:34:02;;;;;;;;;4.00;2.33;;;;;11.56;62.25;-19518.94;4863107;29;45428;-86
2022/12/27 11:36:31;;;;;;;;;2.00;2.00;;;;;11.92;61.39;-19528.25;4844756;29;45743;-87
2022/12/27 11:38:59;;;;;;;;;2.67;2.00;;;;;11.51;61.51;-19517.59;4830920;29;45566;-87
2022/12/27 11:41:35;;;;;;;;;2.00;2.00;;;;;11.97;61.07;-19198.13;4841173;29;47591;-86
2022/12/27 11:44:12;;;;;;;;;2.67;1.00;;;;;11.48;60.87;-19185.31;4873537;29;45535;-86
2022/12/27 11:46:50;;;;;;;;;3.00;1.00;;;;;12.08;61.06;-19200.88;4864891;29;45547;-86
2022/12/27 11:49:21;;;;;;;;;1.00;1.00;;;;;12.08;60.24;-18869.19;4873070;29;45379;-86
2022/12/27 11:51:56;;;;;;;;;1.00;1.00;;;;;12.18;60.42;-19203.53;4834233;29;45887;-86
2022/12/27 11:54:49;;;;;;;;;0.00;0.00;;;;;12.04;60.15;-18868.16;4844361;29;45317;-86
2022/12/27 11:57:39;;;;;;;;;2.33;1.00;;;;;12.31;59.29;-18543.00;4863065;29;45323;-87
2022/12/27 12:00:25;;;;;;;;;2.33;0.00;;;;;12.34;59.12;-18543.75;4863136;29;45319;-87
2022/12/27 12:03:12;;;;;;;;;4.33;1.00;;;;;12.38;59.13;-18544.91;4837741;29;45780;-88
2022/12/27 12:05:57;;;;;;;;;2.00;2.00;;;;;11.78;59.48;-18529.97;4859537;29;45312;-88
2022/12/27 12:08:35;;;;;;;;;2.67;1.00;;;;;12.54;59.50;-18880.69;4870264;29;45442;-88
2022/12/27 12:11:17;;;;;;;;;1.67;1.67;;;;;12.64;59.45;-18883.25;4870044;29;45472;-88
2022/12/27 12:14:20;;;;;;;;;3.00;1.67;;;;;12.10;59.25;-18537.94;4857073;29;45502;-88
2022/12/27 12:17:07;;;;;;;;;5.33;2.00;;;;;12.76;58.48;-18554.13;4845953;29;45373;-87
2022/12/27 12:19:57;;;;;;;;;0.67;0.67;;;;;12.79;58.18;-18222.88;4835181;29;45560;-87
2022/12/27 12:22:47;;;;;;;;;1.00;1.00;;;;;12.84;58.36;-18224.13;4861330;29;45382;-87
2022/12/27 12:25:50;;;;;;;;;0.67;0.67;;;;;12.87;57.73;-17892.53;4845485;29;47230;-88
2022/12/27 12:28:43;;;;;;;;;1.00;1.00;;;;;12.44;58.26;-18214.34;4860060;29;45334;-87
2022/12/27 12:31:31;;;;;;;;;1.33;1.33;;;;;12.97;57.34;-17894.94;4862582;29;45320;-87
2022/12/27 12:34:07;;;;;;;;;2.00;1.67;;;;;13.14;57.26;-17566.56;4845478;29;45585;-87
2022/12/27 12:36:35;;;;;;;;;1.33;1.33;;;;;13.35;56.85;-17571.41;4862239;29;45593;-89
2022/12/27 12:39:16;;;;;;;;;0.67;0.67;;;;;12.69;56.05;-17223.97;4845685;29;45440;-87
2022/12/27 12:42:07;;;;;;;;;2.33;0.33;;;;;13.49;55.43;-16909.38;4862550;29;45366;-88
2022/12/27 12:44:50;;;;;;;;;2.67;1.00;;;;;12.33;55.42;-16883.88;4861507;29;45588;-86
2022/12/27 12:47:27;;;;;;;;;0.67;0.67;;;;;13.52;55.30;-16577.38;4831309;29;48101;-87
2022/12/27 12:50:17;;;;;;;;;0.33;0.33;;;;;13.52;55.15;-16244.78;4861195;29;45395;-88
2022/12/27 12:53:08;;;;;;;;;3.00;0.67;;;;;12.78;54.67;-15896.88;4848148;29;45405;-87
2022/12/27 12:55:49;;;;;;;;;2.33;0.67;;;;;12.67;55.16;-16226.97;4847662;29;45474;-88
2022/12/27 12:58:26;;;;;;;;;2.67;0.67;;;;;13.09;54.87;-15903.25;4850021;29;45600;-88
2022/12/27 13:01:15;;;;;;;;;0.67;0.67;;;;;13.55;54.98;-15579.78;4843475;29;45355;-88
2022/12/27 13:04:05;;;;;;;;;0.67;0.67;;;;;13.56;54.86;-15580.00;4848640;29;45421;-87
2022/12/27 13:06:49;;;;;;;;;2.00;1.00;;;;;13.59;55.39;-15913.41;4838296;29;45524;-88
2022/12/27 13:09:39;;;;;;;;;0.67;0.00;;;;;13.66;55.50;-15914.75;4848545;29;45558;-88
2022/12/27 13:12:07;;;;;;;;;0.33;0.33;;;;;13.71;55.45;-15915.81;4828546;29;45734;-88
2022/12/27 13:15:02;;;;;;;;;1.67;0.33;;;;;13.68;54.67;-15582.44;4850188;29;45660;-88
2022/12/27 13:18:19;;;;;;;;;100.25;84.25;;;;;13.71;54.75;-15582.94;4843422;29;45458;-88
2022/12/27 13:20:56;;;;;;;;;2.67;1.67;;;;;13.72;54.94;-15250.34;4784992;29;45562;-87
2022/12/27 13:23:44;;;;;;;;;1.67;0.67;;;;;13.66;55.01;-15249.16;4767996;29;45728;-87
2022/12/27 13:26:12;;;;;;;;;1.67;0.67;;;;;13.65;55.19;-15248.88;4779165;29;45572;-88
2022/12/27 13:29:06;;;;;;;;;2.67;0.67;;;;;13.63;55.69;-15248.47;4766614;29;45436;-87
2022/12/27 13:31:53;;;;;;;;;0.67;0.67;;;;;13.64;55.77;-15248.66;4780955;29;45635;-87
2022/12/27 13:34:36;;;;;;;;;2.67;0.67;;;;;13.61;55.76;-15580.91;4788109;29;45435;-86
2022/12/27 13:37:37;;;;;;;;;0.67;0.67;;;;;13.63;55.55;-15581.41;4789103;29;45504;-87
2022/12/27 13:40:22;;;;;;;;;0.00;0.00;;;;;13.48;55.70;-15245.59;4788850;29;45592;-87
2022/12/27 13:43:45;;;;;;;;;1.00;0.00;;;;;13.17;56.04;-15239.56;4806216;29;46702;-87
2022/12/27 13:46:22;;;;;;;;;0.33;0.33;;;;;13.54;55.97;-15246.78;4778412;29;46188;-87
2022/12/27 13:48:51;;;;;;;;;0.33;0.00;;;;;13.49;56.15;-15245.81;4808056;29;45398;-87
2022/12/27 13:51:35;;;;;;;;;0.00;0.00;;;;;13.47;56.57;-15245.41;4808562;29;45376;-87
2022/12/27 13:54:28;;;;;;;;;1.00;1.00;;;;;13.26;56.44;-15241.34;4805177;29;45505;-87
2022/12/27 13:57:21;;;;;;;;;1.67;0.00;;;;;13.36;56.69;-15243.22;4834459;29;45382;-87
2022/12/27 13:59:46;;;;;;;;;0.33;0.00;;;;;13.28;56.78;-15241.75;4846954;29;45617;-87
2022/12/27 14:02:44;;;;;;;;;0.33;0.33;;;;;13.24;56.82;-15241.03;4852365;29;45328;-87
2022/12/27 14:05:20;;;;;;;;;0.67;0.67;;;;;13.23;57.07;-15240.84;4841871;29;46534;-87
2022/12/27 14:08:07;;;;;;;;;1.67;0.00;;;;;13.25;57.33;-15241.13;4845471;29;45394;-87
2022/12/27 14:10:40;;;;;;;;;0.00;0.00;;;;;13.22;57.27;-15240.63;4845575;29;45369;-87